sensor_id;sensor_type;location;lat;lon;timestamp;P1;durP1;ratioP1;P2;durP2;ratioP2
18505;SDS011;9382;53.242;10.438;2022-08-05T00:01:12;42.07;;;17.17;;
18505;SDS011;9382;53.242;10.438;2022-08-05T00:03:40;35.77;;;14.47;;
18505;SDS011;9382;53.242;10.438;2022-08-05T00:06:08;34.40;;;15.17;;
18505;SDS011;9382;53.242;10.438;2022-08-05T00:08:36;36.37;;;15.83;;
18505;SDS011;9382;53.242;10.438;2022-08-05T00:11:04;37.97;;;16.97;;
18505;SDS011;9382;53.242;10.438;2022-08-05T00:13:33;40.47;;;16.70;;
18505;SDS011;9382;53.242;10.438;2022-08-05T00:16:01;41.27;;;16.67;;
18505;SDS011;9382;53.242;10.438;2022-08-05T00:18:29;39.60;;;17.63;;
18505;SDS011;9382;53.242;10.438;2022-08-05T00:20:56;35.30;;;14.90;;
18505;SDS011;9382;53.242;10.438;2022-08-05T00:23:24;41.00;;;18.13;;
18505;SDS011;9382;53.242;10.438;2022-08-05T00:25:51;41.90;;;18.40;;
18505;SDS011;9382;53.242;10.438;2022-08-05T00:28:17;37.77;;;15.70;;
18505;SDS011;9382;53.242;10.438;2022-08-05T00:30:44;38.93;;;17.30;;
18505;SDS011;9382;53.242;10.438;2022-08-05T00:33:11;42.33;;;16.13;;
18505;SDS011;9382;53.242;10.438;2022-08-05T00:35:38;38.00;;;16.57;;
18505;SDS011;9382;53.242;10.438;2022-08-05T00:38:05;39.90;;;18.53;;
18505;SDS011;9382;53.242;10.438;2022-08-05T00:40:33;40.93;;;18.27;;
18505;SDS011;9382;53.242;10.438;2022-08-05T00:43:10;41.10;;;18.00;;
18505;SDS011;9382;53.242;10.438;2022-08-05T00:45:37;38.43;;;16.87;;
18505;SDS011;9382;53.242;10.438;2022-08-05T00:48:03;37.30;;;17.07;;
18505;SDS011;9382;53.242;10.438;2022-08-05T00:50:30;36.33;;;18.80;;
18505;SDS011;9382;53.242;10.438;2022-08-05T00:52:57;41.17;;;16.70;;
18505;SDS011;9382;53.242;10.438;2022-08-05T00:55:24;34.23;;;17.63;;
18505;SDS011;9382;53.242;10.438;2022-08-05T00:57:52;39.80;;;16.77;;
18505;SDS011;9382;53.242;10.438;2022-08-05T01:00:19;39.57;;;19.00;;
18505;SDS011;9382;53.242;10.438;2022-08-05T01:02:46;38.97;;;16.47;;
18505;SDS011;9382;53.242;10.438;2022-08-05T01:05:12;41.37;;;19.50;;
18505;SDS011;9382;53.242;10.438;2022-08-05T01:07:39;38.97;;;18.43;;
18505;SDS011;9382;53.242;10.438;2022-08-05T01:10:07;35.53;;;16.67;;
18505;SDS011;9382;53.242;10.438;2022-08-05T01:12:37;35.23;;;16.50;;
18505;SDS011;9382;53.242;10.438;2022-08-05T01:15:10;33.83;;;15.63;;
18505;SDS011;9382;53.242;10.438;2022-08-05T01:17:39;32.10;;;14.43;;
18505;SDS011;9382;53.242;10.438;2022-08-05T01:20:12;27.67;;;12.43;;
18505;SDS011;9382;53.242;10.438;2022-08-05T01:23:00;30.93;;;12.40;;
18505;SDS011;9382;53.242;10.438;2022-08-05T01:25:42;27.33;;;12.10;;
18505;SDS011;9382;53.242;10.438;2022-08-05T01:28:16;24.20;;;11.10;;
18505;SDS011;9382;53.242;10.438;2022-08-05T01:30:50;22.33;;;10.33;;
18505;SDS011;9382;53.242;10.438;2022-08-05T01:33:20;20.00;;;9.30;;
18505;SDS011;9382;53.242;10.438;2022-08-05T01:35:53;23.93;;;9.77;;
18505;SDS011;9382;53.242;10.438;2022-08-05T01:38:21;18.33;;;9.73;;
18505;SDS011;9382;53.242;10.438;2022-08-05T01:40:51;17.57;;;8.97;;
18505;SDS011;9382;53.242;10.438;2022-08-05T01:43:21;17.17;;;7.90;;
18505;SDS011;9382;53.242;10.438;2022-08-05T01:45:49;15.17;;;8.50;;
18505;SDS011;9382;53.242;10.438;2022-08-05T01:48:17;16.43;;;7.97;;
18505;SDS011;9382;53.242;10.438;2022-08-05T01:50:45;18.60;;;8.00;;
18505;SDS011;9382;53.242;10.438;2022-08-05T01:53:12;11.97;;;7.30;;
18505;SDS011;9382;53.242;10.438;2022-08-05T01:55:41;17.43;;;7.40;;
18505;SDS011;9382;53.242;10.438;2022-08-05T01:58:10;18.77;;;7.90;;
18505;SDS011;9382;53.242;10.438;2022-08-05T02:00:40;14.33;;;7.40;;
18505;SDS011;9382;53.242;10.438;2022-08-05T02:03:11;18.13;;;7.47;;
18505;SDS011;9382;53.242;10.438;2022-08-05T02:05:41;16.10;;;7.37;;
18505;SDS011;9382;53.242;10.438;2022-08-05T02:08:09;13.37;;;6.77;;
18505;SDS011;9382;53.242;10.438;2022-08-05T02:10:38;11.03;;;6.20;;
18505;SDS011;9382;53.242;10.438;2022-08-05T02:13:11;14.40;;;6.97;;
18505;SDS011;9382;53.242;10.438;2022-08-05T02:15:42;15.83;;;8.50;;
18505;SDS011;9382;53.242;10.438;2022-08-05T02:18:13;16.87;;;8.90;;
18505;SDS011;9382;53.242;10.438;2022-08-05T02:20:45;15.00;;;7.27;;
18505;SDS011;9382;53.242;10.438;2022-08-05T02:23:14;18.20;;;8.33;;
18505;SDS011;9382;53.242;10.438;2022-08-05T02:25:47;19.47;;;8.33;;
18505;SDS011;9382;53.242;10.438;2022-08-05T02:28:18;18.30;;;8.37;;
18505;SDS011;9382;53.242;10.438;2022-08-05T02:30:51;15.60;;;7.97;;
18505;SDS011;9382;53.242;10.438;2022-08-05T02:33:23;15.23;;;7.43;;
18505;SDS011;9382;53.242;10.438;2022-08-05T02:35:52;18.93;;;9.00;;
18505;SDS011;9382;53.242;10.438;2022-08-05T02:38:21;14.93;;;7.73;;
18505;SDS011;9382;53.242;10.438;2022-08-05T02:40:49;14.63;;;7.57;;
18505;SDS011;9382;53.242;10.438;2022-08-05T02:43:18;15.90;;;7.57;;
18505;SDS011;9382;53.242;10.438;2022-08-05T02:45:46;15.10;;;7.50;;
18505;SDS011;9382;53.242;10.438;2022-08-05T02:48:17;12.47;;;6.47;;
18505;SDS011;9382;53.242;10.438;2022-08-05T02:50:44;10.70;;;6.13;;
18505;SDS011;9382;53.242;10.438;2022-08-05T02:53:15;13.73;;;7.30;;
18505;SDS011;9382;53.242;10.438;2022-08-05T02:55:45;13.97;;;6.30;;
18505;SDS011;9382;53.242;10.438;2022-08-05T02:58:12;14.30;;;7.30;;
18505;SDS011;9382;53.242;10.438;2022-08-05T03:00:40;17.17;;;8.83;;
18505;SDS011;9382;53.242;10.438;2022-08-05T03:03:10;15.57;;;8.03;;
18505;SDS011;9382;53.242;10.438;2022-08-05T03:05:41;15.13;;;8.10;;
18505;SDS011;9382;53.242;10.438;2022-08-05T03:08:08;15.17;;;7.60;;
18505;SDS011;9382;53.242;10.438;2022-08-05T03:10:35;14.77;;;7.50;;
18505;SDS011;9382;53.242;10.438;2022-08-05T03:13:11;16.37;;;8.10;;
18505;SDS011;9382;53.242;10.438;2022-08-05T03:15:40;20.10;;;8.30;;
18505;SDS011;9382;53.242;10.438;2022-08-05T03:18:08;16.40;;;7.77;;
18505;SDS011;9382;53.242;10.438;2022-08-05T03:20:34;14.30;;;7.83;;
18505;SDS011;9382;53.242;10.438;2022-08-05T03:23:02;16.87;;;8.50;;
18505;SDS011;9382;53.242;10.438;2022-08-05T03:25:30;15.80;;;8.40;;
18505;SDS011;9382;53.242;10.438;2022-08-05T03:27:58;17.60;;;9.10;;
18505;SDS011;9382;53.242;10.438;2022-08-05T03:30:25;15.47;;;8.00;;
18505;SDS011;9382;53.242;10.438;2022-08-05T03:32:53;19.13;;;9.33;;
18505;SDS011;9382;53.242;10.438;2022-08-05T03:35:20;22.23;;;9.47;;
18505;SDS011;9382;53.242;10.438;2022-08-05T03:37:47;22.27;;;9.87;;
18505;SDS011;9382;53.242;10.438;2022-08-05T03:40:15;15.33;;;9.40;;
18505;SDS011;9382;53.242;10.438;2022-08-05T03:42:42;22.53;;;9.67;;
18505;SDS011;9382;53.242;10.438;2022-08-05T03:45:09;20.73;;;10.30;;
18505;SDS011;9382;53.242;10.438;2022-08-05T03:47:36;17.00;;;9.13;;
18505;SDS011;9382;53.242;10.438;2022-08-05T03:50:02;16.30;;;9.53;;
18505;SDS011;9382;53.242;10.438;2022-08-05T03:52:30;17.03;;;9.20;;
18505;SDS011;9382;53.242;10.438;2022-08-05T03:55:03;17.90;;;9.27;;
18505;SDS011;9382;53.242;10.438;2022-08-05T03:57:36;17.77;;;9.67;;
18505;SDS011;9382;53.242;10.438;2022-08-05T04:00:06;18.57;;;9.47;;
18505;SDS011;9382;53.242;10.438;2022-08-05T04:02:35;17.60;;;9.70;;
18505;SDS011;9382;53.242;10.438;2022-08-05T04:05:04;21.90;;;10.63;;
18505;SDS011;9382;53.242;10.438;2022-08-05T04:07:33;19.43;;;10.07;;
18505;SDS011;9382;53.242;10.438;2022-08-05T04:10:00;17.57;;;10.07;;
18505;SDS011;9382;53.242;10.438;2022-08-05T04:12:28;15.30;;;9.33;;
18505;SDS011;9382;53.242;10.438;2022-08-05T04:14:56;15.53;;;9.57;;
18505;SDS011;9382;53.242;10.438;2022-08-05T04:17:24;19.60;;;9.50;;
18505;SDS011;9382;53.242;10.438;2022-08-05T04:19:51;19.93;;;11.00;;
18505;SDS011;9382;53.242;10.438;2022-08-05T04:22:17;22.77;;;11.30;;
18505;SDS011;9382;53.242;10.438;2022-08-05T04:24:44;22.27;;;11.13;;
18505;SDS011;9382;53.242;10.438;2022-08-05T04:27:12;24.50;;;10.77;;
18505;SDS011;9382;53.242;10.438;2022-08-05T04:29:39;18.50;;;10.10;;
18505;SDS011;9382;53.242;10.438;2022-08-05T04:32:08;17.70;;;10.17;;
18505;SDS011;9382;53.242;10.438;2022-08-05T04:34:35;17.10;;;9.70;;
18505;SDS011;9382;53.242;10.438;2022-08-05T04:37:02;19.40;;;9.77;;
18505;SDS011;9382;53.242;10.438;2022-08-05T04:39:29;14.77;;;9.27;;
18505;SDS011;9382;53.242;10.438;2022-08-05T04:41:57;14.20;;;8.10;;
18505;SDS011;9382;53.242;10.438;2022-08-05T04:44:24;17.13;;;9.10;;
18505;SDS011;9382;53.242;10.438;2022-08-05T04:46:50;14.87;;;8.37;;
18505;SDS011;9382;53.242;10.438;2022-08-05T04:49:18;13.03;;;8.73;;
18505;SDS011;9382;53.242;10.438;2022-08-05T04:51:45;17.60;;;8.13;;
18505;SDS011;9382;53.242;10.438;2022-08-05T04:54:12;17.77;;;8.03;;
18505;SDS011;9382;53.242;10.438;2022-08-05T04:56:39;14.43;;;8.00;;
18505;SDS011;9382;53.242;10.438;2022-08-05T04:59:06;14.80;;;8.07;;
18505;SDS011;9382;53.242;10.438;2022-08-05T05:01:32;13.90;;;7.93;;
18505;SDS011;9382;53.242;10.438;2022-08-05T05:03:59;8.87;;;6.97;;
18505;SDS011;9382;53.242;10.438;2022-08-05T05:06:27;11.33;;;7.37;;
18505;SDS011;9382;53.242;10.438;2022-08-05T05:08:54;11.37;;;7.27;;
18505;SDS011;9382;53.242;10.438;2022-08-05T05:11:21;12.30;;;7.20;;
18505;SDS011;9382;53.242;10.438;2022-08-05T05:13:47;14.03;;;7.53;;
18505;SDS011;9382;53.242;10.438;2022-08-05T05:16:14;10.77;;;7.30;;
18505;SDS011;9382;53.242;10.438;2022-08-05T05:18:41;11.57;;;6.10;;
18505;SDS011;9382;53.242;10.438;2022-08-05T05:21:08;9.57;;;6.27;;
18505;SDS011;9382;53.242;10.438;2022-08-05T05:23:36;9.40;;;6.27;;
18505;SDS011;9382;53.242;10.438;2022-08-05T05:26:03;11.17;;;6.23;;
18505;SDS011;9382;53.242;10.438;2022-08-05T05:28:30;7.97;;;5.43;;
18505;SDS011;9382;53.242;10.438;2022-08-05T05:30:57;10.37;;;5.40;;
18505;SDS011;9382;53.242;10.438;2022-08-05T05:33:24;7.57;;;5.33;;
18505;SDS011;9382;53.242;10.438;2022-08-05T05:35:50;7.27;;;5.30;;
18505;SDS011;9382;53.242;10.438;2022-08-05T05:38:17;8.10;;;5.00;;
18505;SDS011;9382;53.242;10.438;2022-08-05T05:40:48;6.20;;;4.97;;
18505;SDS011;9382;53.242;10.438;2022-08-05T05:43:15;10.10;;;5.40;;
18505;SDS011;9382;53.242;10.438;2022-08-05T05:45:41;8.13;;;5.27;;
18505;SDS011;9382;53.242;10.438;2022-08-05T05:48:08;8.03;;;5.30;;
18505;SDS011;9382;53.242;10.438;2022-08-05T05:50:35;6.73;;;5.00;;
18505;SDS011;9382;53.242;10.438;2022-08-05T05:53:04;10.23;;;5.07;;
18505;SDS011;9382;53.242;10.438;2022-08-05T05:55:32;7.87;;;5.10;;
18505;SDS011;9382;53.242;10.438;2022-08-05T05:58:00;8.80;;;5.27;;
18505;SDS011;9382;53.242;10.438;2022-08-05T06:00:27;8.33;;;5.30;;
18505;SDS011;9382;53.242;10.438;2022-08-05T06:02:54;11.17;;;5.07;;
18505;SDS011;9382;53.242;10.438;2022-08-05T06:05:20;8.23;;;4.80;;
18505;SDS011;9382;53.242;10.438;2022-08-05T06:07:47;7.93;;;5.13;;
18505;SDS011;9382;53.242;10.438;2022-08-05T06:10:14;8.80;;;5.00;;
18505;SDS011;9382;53.242;10.438;2022-08-05T06:12:41;7.43;;;4.37;;
18505;SDS011;9382;53.242;10.438;2022-08-05T06:15:09;8.53;;;4.77;;
18505;SDS011;9382;53.242;10.438;2022-08-05T06:17:36;9.13;;;4.67;;
18505;SDS011;9382;53.242;10.438;2022-08-05T06:20:03;6.80;;;5.00;;
18505;SDS011;9382;53.242;10.438;2022-08-05T06:22:31;8.47;;;4.80;;
18505;SDS011;9382;53.242;10.438;2022-08-05T06:24:59;7.70;;;4.57;;
18505;SDS011;9382;53.242;10.438;2022-08-05T06:27:27;6.77;;;4.57;;
18505;SDS011;9382;53.242;10.438;2022-08-05T06:29:53;10.67;;;4.90;;
18505;SDS011;9382;53.242;10.438;2022-08-05T06:32:21;6.63;;;4.53;;
18505;SDS011;9382;53.242;10.438;2022-08-05T06:34:48;8.93;;;4.80;;
18505;SDS011;9382;53.242;10.438;2022-08-05T06:37:15;7.30;;;4.37;;
18505;SDS011;9382;53.242;10.438;2022-08-05T06:39:42;5.37;;;4.57;;
18505;SDS011;9382;53.242;10.438;2022-08-05T06:42:08;8.13;;;4.87;;
18505;SDS011;9382;53.242;10.438;2022-08-05T06:44:37;9.90;;;4.60;;
18505;SDS011;9382;53.242;10.438;2022-08-05T06:47:04;7.80;;;4.80;;
18505;SDS011;9382;53.242;10.438;2022-08-05T06:49:32;12.23;;;5.10;;
18505;SDS011;9382;53.242;10.438;2022-08-05T06:51:59;8.03;;;4.80;;
18505;SDS011;9382;53.242;10.438;2022-08-05T06:54:25;7.17;;;4.63;;
18505;SDS011;9382;53.242;10.438;2022-08-05T06:56:52;6.60;;;4.50;;
18505;SDS011;9382;53.242;10.438;2022-08-05T06:59:19;9.10;;;4.73;;
18505;SDS011;9382;53.242;10.438;2022-08-05T07:01:46;7.23;;;5.10;;
18505;SDS011;9382;53.242;10.438;2022-08-05T07:04:12;6.67;;;4.23;;
18505;SDS011;9382;53.242;10.438;2022-08-05T07:06:40;6.73;;;4.50;;
18505;SDS011;9382;53.242;10.438;2022-08-05T07:09:07;6.83;;;4.20;;
18505;SDS011;9382;53.242;10.438;2022-08-05T07:11:34;5.93;;;4.17;;
18505;SDS011;9382;53.242;10.438;2022-08-05T07:14:01;7.30;;;4.57;;
18505;SDS011;9382;53.242;10.438;2022-08-05T07:16:45;6.23;;;4.43;;
18505;SDS011;9382;53.242;10.438;2022-08-05T07:19:15;5.97;;;4.37;;
18505;SDS011;9382;53.242;10.438;2022-08-05T07:21:45;5.63;;;4.30;;
18505;SDS011;9382;53.242;10.438;2022-08-05T07:24:13;8.23;;;4.60;;
18505;SDS011;9382;53.242;10.438;2022-08-05T07:26:40;4.83;;;4.03;;
18505;SDS011;9382;53.242;10.438;2022-08-05T07:29:07;6.73;;;4.33;;
18505;SDS011;9382;53.242;10.438;2022-08-05T07:31:34;5.60;;;4.33;;
18505;SDS011;9382;53.242;10.438;2022-08-05T07:34:02;10.57;;;4.60;;
18505;SDS011;9382;53.242;10.438;2022-08-05T07:36:28;7.17;;;4.37;;
18505;SDS011;9382;53.242;10.438;2022-08-05T07:38:58;8.20;;;4.50;;
18505;SDS011;9382;53.242;10.438;2022-08-05T07:41:25;7.63;;;4.13;;
18505;SDS011;9382;53.242;10.438;2022-08-05T07:43:53;6.87;;;4.43;;
18505;SDS011;9382;53.242;10.438;2022-08-05T07:46:20;9.87;;;4.43;;
18505;SDS011;9382;53.242;10.438;2022-08-05T07:48:47;7.13;;;4.20;;
18505;SDS011;9382;53.242;10.438;2022-08-05T07:51:14;8.30;;;4.60;;
18505;SDS011;9382;53.242;10.438;2022-08-05T07:53:41;6.80;;;4.47;;
18505;SDS011;9382;53.242;10.438;2022-08-05T07:56:09;8.33;;;4.83;;
18505;SDS011;9382;53.242;10.438;2022-08-05T07:58:36;7.60;;;5.20;;
18505;SDS011;9382;53.242;10.438;2022-08-05T08:01:03;6.67;;;4.70;;
18505;SDS011;9382;53.242;10.438;2022-08-05T08:03:29;6.47;;;4.90;;
18505;SDS011;9382;53.242;10.438;2022-08-05T08:05:56;8.70;;;5.40;;
18505;SDS011;9382;53.242;10.438;2022-08-05T08:08:23;8.47;;;5.13;;
18505;SDS011;9382;53.242;10.438;2022-08-05T08:10:50;8.47;;;5.73;;
18505;SDS011;9382;53.242;10.438;2022-08-05T08:13:20;10.50;;;5.20;;
18505;SDS011;9382;53.242;10.438;2022-08-05T08:15:47;9.63;;;5.67;;
18505;SDS011;9382;53.242;10.438;2022-08-05T08:18:14;11.30;;;5.70;;
18505;SDS011;9382;53.242;10.438;2022-08-05T08:20:41;13.07;;;6.23;;
18505;SDS011;9382;53.242;10.438;2022-08-05T08:23:08;8.23;;;6.13;;
18505;SDS011;9382;53.242;10.438;2022-08-05T08:25:35;14.53;;;6.33;;
18505;SDS011;9382;53.242;10.438;2022-08-05T08:28:02;11.87;;;6.50;;
18505;SDS011;9382;53.242;10.438;2022-08-05T08:30:30;9.20;;;6.30;;
18505;SDS011;9382;53.242;10.438;2022-08-05T08:32:57;11.03;;;7.13;;
18505;SDS011;9382;53.242;10.438;2022-08-05T08:35:24;10.80;;;6.43;;
18505;SDS011;9382;53.242;10.438;2022-08-05T08:37:51;11.13;;;7.33;;
18505;SDS011;9382;53.242;10.438;2022-08-05T08:40:18;14.30;;;7.33;;
18505;SDS011;9382;53.242;10.438;2022-08-05T08:42:45;13.47;;;7.37;;
18505;SDS011;9382;53.242;10.438;2022-08-05T08:45:15;13.13;;;8.07;;
18505;SDS011;9382;53.242;10.438;2022-08-05T08:47:46;12.33;;;7.60;;
18505;SDS011;9382;53.242;10.438;2022-08-05T08:50:15;16.83;;;8.00;;
18505;SDS011;9382;53.242;10.438;2022-08-05T08:52:44;18.43;;;8.40;;
18505;SDS011;9382;53.242;10.438;2022-08-05T08:55:15;13.40;;;8.13;;
18505;SDS011;9382;53.242;10.438;2022-08-05T08:57:43;11.20;;;7.87;;
18505;SDS011;9382;53.242;10.438;2022-08-05T09:00:11;11.43;;;8.10;;
18505;SDS011;9382;53.242;10.438;2022-08-05T09:02:38;12.80;;;7.97;;
18505;SDS011;9382;53.242;10.438;2022-08-05T09:05:07;10.20;;;7.07;;
18505;SDS011;9382;53.242;10.438;2022-08-05T09:07:36;13.87;;;7.60;;
18505;SDS011;9382;53.242;10.438;2022-08-05T09:10:04;12.67;;;7.60;;
18505;SDS011;9382;53.242;10.438;2022-08-05T09:12:31;13.57;;;8.03;;
18505;SDS011;9382;53.242;10.438;2022-08-05T09:14:59;11.57;;;7.33;;
18505;SDS011;9382;53.242;10.438;2022-08-05T09:17:27;9.87;;;7.60;;
18505;SDS011;9382;53.242;10.438;2022-08-05T09:19:55;12.73;;;7.77;;
18505;SDS011;9382;53.242;10.438;2022-08-05T09:22:23;12.40;;;7.47;;
18505;SDS011;9382;53.242;10.438;2022-08-05T09:24:56;12.17;;;7.23;;
18505;SDS011;9382;53.242;10.438;2022-08-05T09:27:31;8.80;;;6.67;;
18505;SDS011;9382;53.242;10.438;2022-08-05T09:29:59;11.53;;;6.50;;
18505;SDS011;9382;53.242;10.438;2022-08-05T09:32:33;9.90;;;7.07;;
18505;SDS011;9382;53.242;10.438;2022-08-05T09:35:08;10.47;;;7.27;;
18505;SDS011;9382;53.242;10.438;2022-08-05T09:37:39;10.83;;;6.77;;
18505;SDS011;9382;53.242;10.438;2022-08-05T09:40:27;9.80;;;7.50;;
18505;SDS011;9382;53.242;10.438;2022-08-05T09:42:56;10.83;;;7.27;;
18505;SDS011;9382;53.242;10.438;2022-08-05T09:45:32;12.23;;;7.67;;
18505;SDS011;9382;53.242;10.438;2022-08-05T09:48:08;13.00;;;7.93;;
18505;SDS011;9382;53.242;10.438;2022-08-05T09:50:47;11.07;;;7.20;;
18505;SDS011;9382;53.242;10.438;2022-08-05T09:53:16;10.93;;;7.40;;
18505;SDS011;9382;53.242;10.438;2022-08-05T09:55:44;8.87;;;6.97;;
18505;SDS011;9382;53.242;10.438;2022-08-05T09:58:11;11.43;;;6.73;;
18505;SDS011;9382;53.242;10.438;2022-08-05T10:00:39;7.57;;;6.00;;
18505;SDS011;9382;53.242;10.438;2022-08-05T10:03:20;6.97;;;5.73;;
18505;SDS011;9382;53.242;10.438;2022-08-05T10:05:58;5.83;;;5.23;;
18505;SDS011;9382;53.242;10.438;2022-08-05T10:08:28;4.70;;;4.30;;
18505;SDS011;9382;53.242;10.438;2022-08-05T10:10:55;4.67;;;4.07;;
18505;SDS011;9382;53.242;10.438;2022-08-05T10:13:29;5.37;;;4.10;;
18505;SDS011;9382;53.242;10.438;2022-08-05T10:15:59;5.23;;;4.53;;
18505;SDS011;9382;53.242;10.438;2022-08-05T10:18:26;5.77;;;4.50;;
18505;SDS011;9382;53.242;10.438;2022-08-05T10:20:58;5.77;;;3.77;;
18505;SDS011;9382;53.242;10.438;2022-08-05T10:23:27;4.40;;;3.67;;
18505;SDS011;9382;53.242;10.438;2022-08-05T10:25:57;5.13;;;3.60;;
18505;SDS011;9382;53.242;10.438;2022-08-05T10:28:24;7.07;;;4.30;;
18505;SDS011;9382;53.242;10.438;2022-08-05T10:30:51;4.53;;;3.33;;
18505;SDS011;9382;53.242;10.438;2022-08-05T10:33:19;4.00;;;3.60;;
18505;SDS011;9382;53.242;10.438;2022-08-05T10:35:48;4.10;;;3.70;;
18505;SDS011;9382;53.242;10.438;2022-08-05T10:38:17;5.37;;;3.60;;
18505;SDS011;9382;53.242;10.438;2022-08-05T10:40:52;4.10;;;3.80;;
18505;SDS011;9382;53.242;10.438;2022-08-05T10:43:27;6.50;;;4.10;;
18505;SDS011;9382;53.242;10.438;2022-08-05T10:46:00;5.37;;;4.00;;
18505;SDS011;9382;53.242;10.438;2022-08-05T10:48:31;4.80;;;4.23;;
18505;SDS011;9382;53.242;10.438;2022-08-05T10:51:04;4.40;;;4.00;;
18505;SDS011;9382;53.242;10.438;2022-08-05T10:53:34;5.53;;;4.80;;
18505;SDS011;9382;53.242;10.438;2022-08-05T10:56:08;5.43;;;4.97;;
18505;SDS011;9382;53.242;10.438;2022-08-05T10:58:46;6.10;;;5.50;;
18505;SDS011;9382;53.242;10.438;2022-08-05T11:01:15;8.20;;;5.60;;
18505;SDS011;9382;53.242;10.438;2022-08-05T11:04:01;7.60;;;5.33;;
18505;SDS011;9382;53.242;10.438;2022-08-05T11:06:30;6.43;;;5.70;;
18505;SDS011;9382;53.242;10.438;2022-08-05T11:09:11;7.07;;;6.37;;
18505;SDS011;9382;53.242;10.438;2022-08-05T11:11:43;9.37;;;6.43;;
18505;SDS011;9382;53.242;10.438;2022-08-05T11:14:10;7.27;;;6.33;;
18505;SDS011;9382;53.242;10.438;2022-08-05T11:16:38;8.17;;;6.10;;
18505;SDS011;9382;53.242;10.438;2022-08-05T11:19:24;9.27;;;6.67;;
18505;SDS011;9382;53.242;10.438;2022-08-05T11:21:52;7.83;;;6.80;;
18505;SDS011;9382;53.242;10.438;2022-08-05T11:24:19;7.60;;;6.30;;
18505;SDS011;9382;53.242;10.438;2022-08-05T11:26:49;9.23;;;7.03;;
18505;SDS011;9382;53.242;10.438;2022-08-05T11:29:38;9.17;;;7.17;;
18505;SDS011;9382;53.242;10.438;2022-08-05T11:32:24;11.07;;;6.90;;
18505;SDS011;9382;53.242;10.438;2022-08-05T11:34:52;8.90;;;6.50;;
18505;SDS011;9382;53.242;10.438;2022-08-05T11:43:23;9.43;;;7.03;;
18505;SDS011;9382;53.242;10.438;2022-08-05T11:45:52;12.50;;;7.43;;
18505;SDS011;9382;53.242;10.438;2022-08-05T11:48:19;9.93;;;7.27;;
18505;SDS011;9382;53.242;10.438;2022-08-05T11:50:46;13.47;;;7.03;;
18505;SDS011;9382;53.242;10.438;2022-08-05T11:53:14;11.40;;;6.93;;
18505;SDS011;9382;53.242;10.438;2022-08-05T11:55:51;11.10;;;7.13;;
18505;SDS011;9382;53.242;10.438;2022-08-05T11:58:28;7.47;;;6.47;;
18505;SDS011;9382;53.242;10.438;2022-08-05T12:01:03;9.77;;;7.37;;
18505;SDS011;9382;53.242;10.438;2022-08-05T12:03:39;11.40;;;7.37;;
18505;SDS011;9382;53.242;10.438;2022-08-05T12:06:07;10.70;;;6.57;;
18505;SDS011;9382;53.242;10.438;2022-08-05T12:08:39;8.83;;;6.30;;
18505;SDS011;9382;53.242;10.438;2022-08-05T12:11:09;11.87;;;7.10;;
18505;SDS011;9382;53.242;10.438;2022-08-05T12:13:40;11.00;;;7.27;;
18505;SDS011;9382;53.242;10.438;2022-08-05T12:16:20;9.77;;;6.70;;
18505;SDS011;9382;53.242;10.438;2022-08-05T12:18:47;10.70;;;7.90;;
18505;SDS011;9382;53.242;10.438;2022-08-05T12:21:15;15.23;;;8.17;;
18505;SDS011;9382;53.242;10.438;2022-08-05T12:23:50;11.67;;;8.00;;
18505;SDS011;9382;53.242;10.438;2022-08-05T12:26:17;12.27;;;7.80;;
18505;SDS011;9382;53.242;10.438;2022-08-05T12:28:44;12.30;;;7.73;;
18505;SDS011;9382;53.242;10.438;2022-08-05T12:31:11;16.93;;;8.53;;
18505;SDS011;9382;53.242;10.438;2022-08-05T12:33:40;14.87;;;7.60;;
18505;SDS011;9382;53.242;10.438;2022-08-05T12:36:07;9.83;;;6.93;;
18505;SDS011;9382;53.242;10.438;2022-08-05T12:38:35;12.17;;;7.17;;
18505;SDS011;9382;53.242;10.438;2022-08-05T12:41:05;12.73;;;7.30;;
18505;SDS011;9382;53.242;10.438;2022-08-05T12:43:33;11.07;;;7.17;;
18505;SDS011;9382;53.242;10.438;2022-08-05T12:46:00;9.80;;;6.70;;
18505;SDS011;9382;53.242;10.438;2022-08-05T12:48:26;9.07;;;6.80;;
18505;SDS011;9382;53.242;10.438;2022-08-05T12:51:12;10.17;;;6.83;;
18505;SDS011;9382;53.242;10.438;2022-08-05T12:53:41;8.70;;;6.17;;
18505;SDS011;9382;53.242;10.438;2022-08-05T12:56:16;7.60;;;6.80;;
18505;SDS011;9382;53.242;10.438;2022-08-05T12:58:43;10.33;;;7.20;;
18505;SDS011;9382;53.242;10.438;2022-08-05T13:01:12;8.40;;;6.57;;
18505;SDS011;9382;53.242;10.438;2022-08-05T13:03:40;10.93;;;5.77;;
18505;SDS011;9382;53.242;10.438;2022-08-05T13:06:07;8.07;;;6.27;;
18505;SDS011;9382;53.242;10.438;2022-08-05T13:08:38;8.17;;;6.10;;
18505;SDS011;9382;53.242;10.438;2022-08-05T13:11:05;12.23;;;6.53;;
18505;SDS011;9382;53.242;10.438;2022-08-05T13:13:32;10.47;;;6.90;;
18505;SDS011;9382;53.242;10.438;2022-08-05T13:16:10;10.87;;;7.10;;
18505;SDS011;9382;53.242;10.438;2022-08-05T13:18:38;9.83;;;7.33;;
18505;SDS011;9382;53.242;10.438;2022-08-05T13:21:05;11.00;;;7.93;;
18505;SDS011;9382;53.242;10.438;2022-08-05T13:23:34;12.67;;;7.73;;
18505;SDS011;9382;53.242;10.438;2022-08-05T13:26:01;11.87;;;7.80;;
18505;SDS011;9382;53.242;10.438;2022-08-05T13:28:29;9.10;;;7.10;;
18505;SDS011;9382;53.242;10.438;2022-08-05T13:30:56;8.43;;;6.00;;
18505;SDS011;9382;53.242;10.438;2022-08-05T13:33:23;7.87;;;6.30;;
18505;SDS011;9382;53.242;10.438;2022-08-05T13:35:50;8.27;;;5.10;;
18505;SDS011;9382;53.242;10.438;2022-08-05T13:38:17;9.57;;;5.87;;
18505;SDS011;9382;53.242;10.438;2022-08-05T13:40:45;5.73;;;5.13;;
18505;SDS011;9382;53.242;10.438;2022-08-05T13:43:12;8.37;;;5.40;;
18505;SDS011;9382;53.242;10.438;2022-08-05T13:45:39;9.97;;;5.63;;
18505;SDS011;9382;53.242;10.438;2022-08-05T13:48:05;6.60;;;5.70;;
18505;SDS011;9382;53.242;10.438;2022-08-05T13:50:32;7.70;;;5.83;;
18505;SDS011;9382;53.242;10.438;2022-08-05T13:52:59;6.73;;;5.50;;
18505;SDS011;9382;53.242;10.438;2022-08-05T13:55:26;9.73;;;6.77;;
18505;SDS011;9382;53.242;10.438;2022-08-05T13:57:54;6.50;;;5.90;;
18505;SDS011;9382;53.242;10.438;2022-08-05T14:00:20;8.37;;;5.83;;
18505;SDS011;9382;53.242;10.438;2022-08-05T14:02:47;15.70;;;8.33;;
18505;SDS011;9382;53.242;10.438;2022-08-05T14:05:14;6.87;;;4.40;;
18505;SDS011;9382;53.242;10.438;2022-08-05T14:07:41;5.30;;;4.43;;
18505;SDS011;9382;53.242;10.438;2022-08-05T14:10:10;5.30;;;3.37;;
18505;SDS011;9382;53.242;10.438;2022-08-05T14:12:39;6.40;;;3.83;;
18505;SDS011;9382;53.242;10.438;2022-08-05T14:15:08;4.47;;;3.90;;
18505;SDS011;9382;53.242;10.438;2022-08-05T14:17:35;5.73;;;3.87;;
18505;SDS011;9382;53.242;10.438;2022-08-05T14:20:02;4.20;;;3.80;;
18505;SDS011;9382;53.242;10.438;2022-08-05T14:22:30;7.60;;;4.67;;
18505;SDS011;9382;53.242;10.438;2022-08-05T14:24:57;4.93;;;4.30;;
18505;SDS011;9382;53.242;10.438;2022-08-05T14:27:23;6.00;;;3.50;;
18505;SDS011;9382;53.242;10.438;2022-08-05T14:29:50;4.37;;;3.53;;
18505;SDS011;9382;53.242;10.438;2022-08-05T14:32:18;5.43;;;4.00;;
18505;SDS011;9382;53.242;10.438;2022-08-05T14:34:45;3.17;;;2.90;;
18505;SDS011;9382;53.242;10.438;2022-08-05T14:37:12;3.67;;;3.00;;
18505;SDS011;9382;53.242;10.438;2022-08-05T14:39:38;4.93;;;3.10;;
18505;SDS011;9382;53.242;10.438;2022-08-05T14:42:05;3.00;;;2.80;;
18505;SDS011;9382;53.242;10.438;2022-08-05T14:44:33;4.30;;;2.50;;
18505;SDS011;9382;53.242;10.438;2022-08-05T14:46:59;3.20;;;2.40;;
18505;SDS011;9382;53.242;10.438;2022-08-05T14:49:27;3.30;;;3.00;;
18505;SDS011;9382;53.242;10.438;2022-08-05T14:51:54;3.83;;;2.90;;
18505;SDS011;9382;53.242;10.438;2022-08-05T14:54:21;5.97;;;4.00;;